Alexandria, Romania

10:37 AM EEST on September 01, 2014 (GMT +0300)
Baneasa | Change Station
CLOSE
Current Station
Airport
Location: Bucharest,
Elevation: 299 ft
Nearby Weather Stations

Elev 299 ft 44.50 °N, 26.08 °E | Updated 7 minutes ago

Clear
Clear
73 °F
Feels Like 73 °F
N
9
Wind Variable Wind from ENE

Today
High -- | Low -- °F
--% Chance of Precip.
Yesterday
High -- | Low -- °F
Precip. -- in
6:41 AM 7:55 PM
Waxing Crescent, 38% visible
Pressure 29.89 in
Visibility -9999.0 miles
Clouds
Dew Point 55 °F
Humidity 53%
Rainfall 0.00 in
Snow Depth Not available.
UV Not available.
Pollen Not available.
Air Quality Not available.
Flu Activity Not available.
METAR LRBS 010730Z 07008KT 040V110 CAVOK 23/13 Q1012 NOSIG

More Conditions Fewer Conditions

Pressure 29.89 in
Visibility -9999.0 miles
Clouds
Dew Point 55 °F
Humidity 53%
Rainfall 0.00 in
Snow Depth Not available.
UV Not available.
Pollen Not available.
Air Quality Not available.
Flu Activity Not available.
METAR LRBS 010730Z 07008KT 040V110 CAVOK 23/13 Q1012 NOSIG

More Conditions Fewer Conditions

10-Day Weather Forecast

Almanac

Astronomy

Sep. 01, 2014 Rise Set
Actual Time 6:41 AM EEST 7:55 PM EEST
Civil Twilight 6:11 AM EEST 8:24 PM EEST
Nautical Twilight 5:36 AM EEST 9:00 PM EEST
Astronomical Twilight 4:58 AM EEST 9:37 PM EEST
Moon 1:22 PM EEST 11:26 PM EEST
Length of Visible Light 14h 12m
Length of Day
13h 13m
Tomorrow will be 2m 54s shorter.
Waxing Crescent, 38% of the Moon is Illuminated
Today
Waxing Crescent
Sep 2
First Quarter
Sep 8
Full
Sep 15
Last Quarter
Sep 24
New

Yesterday's Extremes

Country Highs Country Lows

Community

WunderPhotos

Upload Photos

1,749,154 photos uploaded!

Nearby

Snow Depth

Not available.

Earthquake Activity

City Distance Mag. Time & Date
No recent earthquake activity has been reported nearby.
Minimum magnitude displayed is 2.5.

Coastal Water Temperatures

Place Temperature
No Stations Reporting

Nearby Weather Stations